createdAt,value
2023-01-09T00:01:32.539Z,7.03
2023-01-09T00:04:00.319Z,6.50
2023-01-09T00:06:27.826Z,6.23
2023-01-09T00:08:55.008Z,6.07
2023-01-09T00:11:22.507Z,6.60
2023-01-09T00:13:50.018Z,7.47
2023-01-09T00:16:17.322Z,6.23
2023-01-09T00:18:44.454Z,6.60
2023-01-09T00:21:12.869Z,6.57
2023-01-09T00:23:40.147Z,6.67
2023-01-09T00:26:17.921Z,6.77
2023-01-09T00:28:46.990Z,5.90
2023-01-09T00:31:14.573Z,6.43
2023-01-09T00:33:59.418Z,7.63
2023-01-09T00:36:27.049Z,6.37
2023-01-09T00:38:54.209Z,5.53
2023-01-09T00:41:28.993Z,5.40
2023-01-09T00:44:03.311Z,5.23
2023-01-09T00:46:35.042Z,5.27
2023-01-09T00:49:05.432Z,5.03
2023-01-09T00:51:32.739Z,4.93
2023-01-09T00:54:02.154Z,5.60
2023-01-09T00:56:29.622Z,7.67
2023-01-09T00:58:56.883Z,7.67
2023-01-09T01:01:24.405Z,7.70
2023-01-09T01:03:51.660Z,6.00
2023-01-09T01:06:37.195Z,5.80
2023-01-09T01:09:04.419Z,6.70
2023-01-09T01:11:34.575Z,6.23
2023-01-09T01:14:02.088Z,6.47
2023-01-09T01:16:29.239Z,7.57
2023-01-09T01:18:56.334Z,6.03
2023-01-09T01:21:23.596Z,7.67
2023-01-09T01:23:50.831Z,6.93
2023-01-09T01:26:17.971Z,6.90
2023-01-09T01:28:45.234Z,7.37
2023-01-09T01:31:19.670Z,7.23
2023-01-09T01:33:47.038Z,9.67
2023-01-09T01:36:16.203Z,9.17
2023-01-09T01:38:43.958Z,7.77
2023-01-09T01:41:11.049Z,8.80
2023-01-09T01:43:56.253Z,7.40
2023-01-09T01:46:24.135Z,9.03
2023-01-09T01:49:00.679Z,8.47
2023-01-09T01:51:31.888Z,7.63
2023-01-09T01:54:03.825Z,8.03
2023-01-09T01:56:47.125Z,9.33
2023-01-09T01:59:35.139Z,7.47
2023-01-09T02:02:03.552Z,10.10
2023-01-09T02:04:34.860Z,7.93
2023-01-09T02:07:08.183Z,8.90
2023-01-09T02:09:36.699Z,8.80
2023-01-09T02:12:17.917Z,8.63
2023-01-09T02:14:47.326Z,6.97
2023-01-09T02:18:07.117Z,9.90
2023-01-09T02:20:46.719Z,6.00
2023-01-09T02:24:06.089Z,7.20
2023-01-09T02:27:33.694Z,7.87
2023-01-09T02:30:15.750Z,8.60
2023-01-09T02:33:15.223Z,9.40
2023-01-09T02:36:06.737Z,11.13
2023-01-09T02:38:41.532Z,9.73
2023-01-09T02:41:14.457Z,7.40
2023-01-09T02:43:41.807Z,8.93
2023-01-09T02:46:20.558Z,9.03
2023-01-09T02:48:51.165Z,9.40
2023-01-09T02:51:52.399Z,9.87
2023-01-09T02:55:24.385Z,8.03
2023-01-09T02:58:15.657Z,9.67
2023-01-09T03:01:20.264Z,9.20
2023-01-09T03:04:01.960Z,10.50
2023-01-09T03:06:57.551Z,10.97
2023-01-09T03:09:29.149Z,8.57
2023-01-09T03:12:05.083Z,10.70
2023-01-09T03:14:34.005Z,10.47
2023-01-09T03:17:08.157Z,9.77
2023-01-09T03:19:36.038Z,10.83
2023-01-09T03:22:03.588Z,10.00
2023-01-09T03:24:30.819Z,12.00
2023-01-09T03:26:57.889Z,10.03
2023-01-09T03:29:25.230Z,11.97
2023-01-09T03:31:52.517Z,12.73
2023-01-09T03:34:19.772Z,12.53
2023-01-09T03:36:46.870Z,10.27
2023-01-09T03:39:13.936Z,11.63
2023-01-09T03:41:40.997Z,11.03
2023-01-09T03:44:08.274Z,12.70
2023-01-09T03:46:35.413Z,11.37
2023-01-09T03:49:02.502Z,12.53
2023-01-09T03:51:29.598Z,9.43
2023-01-09T03:53:56.732Z,11.47
2023-01-09T03:56:25.573Z,10.77
2023-01-09T03:58:53.594Z,11.57
2023-01-09T04:01:20.904Z,11.90
2023-01-09T04:03:48.156Z,13.53
2023-01-09T04:06:15.257Z,11.23
2023-01-09T04:08:42.381Z,10.13
2023-01-09T04:11:09.816Z,9.93
2023-01-09T04:13:36.848Z,10.40
2023-01-09T04:16:04.260Z,10.13
2023-01-09T04:18:31.439Z,10.53
2023-01-09T04:20:58.498Z,11.17
2023-01-09T04:23:25.565Z,11.50
2023-01-09T04:25:52.666Z,11.53
2023-01-09T04:28:19.743Z,12.60
2023-01-09T04:30:46.852Z,11.77
2023-01-09T04:33:14.004Z,10.00
2023-01-09T04:35:41.149Z,9.27
2023-01-09T04:38:08.292Z,10.83
2023-01-09T04:40:35.495Z,11.60
2023-01-09T04:43:02.598Z,10.43
2023-01-09T04:45:30.277Z,8.73
2023-01-09T04:47:57.978Z,9.67
2023-01-09T04:50:25.379Z,12.27
2023-01-09T04:52:52.790Z,11.10
2023-01-09T04:55:20.167Z,10.53
2023-01-09T04:57:47.797Z,9.27
2023-01-09T05:00:16.081Z,10.23
2023-01-09T05:02:44.124Z,10.10
2023-01-09T05:05:12.425Z,10.80
2023-01-09T05:07:40.993Z,8.60
2023-01-09T05:10:10.834Z,8.70
2023-01-09T05:12:39.966Z,8.63
2023-01-09T05:15:09.074Z,8.33
2023-01-09T05:17:36.796Z,7.90
2023-01-09T05:20:05.564Z,7.03
2023-01-09T05:22:33.488Z,7.27
2023-01-09T05:25:01.155Z,12.10
2023-01-09T05:27:30.523Z,8.43
2023-01-09T05:29:58.423Z,9.80
2023-01-09T05:32:26.065Z,8.40
2023-01-09T05:34:53.373Z,8.80
2023-01-09T05:37:20.800Z,8.43
2023-01-09T05:39:48.194Z,8.90
2023-01-09T05:42:15.605Z,8.30
2023-01-09T05:44:42.986Z,8.57
2023-01-09T05:47:10.476Z,10.07
2023-01-09T05:49:37.926Z,9.50
2023-01-09T05:52:05.842Z,10.63
2023-01-09T05:54:33.225Z,13.03
2023-01-09T05:57:00.639Z,11.40
2023-01-09T05:59:28.468Z,13.03
2023-01-09T06:01:56.051Z,11.43
2023-01-09T06:04:23.671Z,11.97
2023-01-09T06:06:51.148Z,12.70
2023-01-09T06:09:18.762Z,11.33
2023-01-09T06:11:46.108Z,12.73
2023-01-09T06:14:13.927Z,12.27
2023-01-09T06:16:44.400Z,12.80
2023-01-09T06:19:11.988Z,11.37
2023-01-09T06:21:39.424Z,12.20
2023-01-09T06:24:07.586Z,11.93
2023-01-09T06:26:35.109Z,13.33
2023-01-09T06:29:02.479Z,12.83
2023-01-09T06:31:29.980Z,12.53
2023-01-09T06:33:57.428Z,12.33
2023-01-09T06:36:24.898Z,13.87
2023-01-09T06:38:52.599Z,13.43
2023-01-09T06:41:20.109Z,14.17
2023-01-09T06:43:47.699Z,13.60
2023-01-09T06:46:15.256Z,16.93
2023-01-09T06:48:42.852Z,14.57
2023-01-09T06:51:10.408Z,14.70
2023-01-09T06:53:39.076Z,16.23
2023-01-09T06:56:06.938Z,15.37
2023-01-09T06:58:34.414Z,15.07
2023-01-09T07:01:02.053Z,17.13
2023-01-09T07:03:29.779Z,17.27
2023-01-09T07:05:57.289Z,16.93
2023-01-09T07:08:24.718Z,16.97
2023-01-09T07:10:52.686Z,17.77
2023-01-09T07:13:20.232Z,17.10
2023-01-09T07:15:47.695Z,18.30
2023-01-09T07:18:15.080Z,18.03
2023-01-09T07:20:42.645Z,17.83
2023-01-09T07:23:13.907Z,19.70
2023-01-09T07:25:42.933Z,19.03
2023-01-09T07:28:10.476Z,19.47
2023-01-09T07:30:37.878Z,18.60
2023-01-09T07:33:05.290Z,21.03
2023-01-09T07:35:32.903Z,18.63
2023-01-09T07:38:00.348Z,21.37
2023-01-09T07:40:27.609Z,20.63
2023-01-09T07:42:55.164Z,20.87
2023-01-09T07:45:22.436Z,22.37
2023-01-09T07:47:49.777Z,20.13
2023-01-09T07:50:17.264Z,20.77
2023-01-09T07:52:48.397Z,23.17
2023-01-09T07:55:17.470Z,21.53
2023-01-09T07:57:50.070Z,21.27
2023-01-09T08:00:19.208Z,23.83
2023-01-09T08:02:46.930Z,24.47
2023-01-09T08:05:15.994Z,23.70
2023-01-09T08:07:43.538Z,24.83
2023-01-09T08:10:11.957Z,26.60
2023-01-09T08:12:43.675Z,27.27
2023-01-09T08:15:12.148Z,25.17
2023-01-09T08:17:43.781Z,24.73
2023-01-09T08:20:13.678Z,20.80
2023-01-09T08:22:50.634Z,22.60
2023-01-09T08:25:18.832Z,24.73
2023-01-09T08:27:47.081Z,25.93
2023-01-09T08:30:16.553Z,27.67
2023-01-09T08:32:44.501Z,24.97
2023-01-09T08:35:11.913Z,25.47
2023-01-09T08:37:39.209Z,23.67
2023-01-09T08:40:07.385Z,25.23
2023-01-09T08:42:52.957Z,25.47
2023-01-09T08:45:39.088Z,26.53
2023-01-09T08:48:07.838Z,27.83
2023-01-09T08:50:35.317Z,30.93
2023-01-09T08:53:02.873Z,28.80
2023-01-09T08:55:30.297Z,29.43
2023-01-09T08:57:57.720Z,28.70
2023-01-09T09:00:25.862Z,32.63
2023-01-09T09:02:58.615Z,29.80
2023-01-09T09:05:28.133Z,26.10
2023-01-09T09:07:57.307Z,24.90
2023-01-09T09:10:28.023Z,26.87
2023-01-09T09:12:57.878Z,22.17
2023-01-09T09:15:26.787Z,20.40
2023-01-09T09:18:00.849Z,21.70
2023-01-09T09:20:35.306Z,20.30
2023-01-09T09:23:03.055Z,18.47
2023-01-09T09:25:30.930Z,21.87
2023-01-09T09:27:58.339Z,18.43
2023-01-09T09:30:25.685Z,16.90
2023-01-09T09:32:53.030Z,18.03
2023-01-09T09:35:23.495Z,19.77
2023-01-09T09:37:57.251Z,23.63
2023-01-09T09:40:45.452Z,17.83
2023-01-09T09:44:04.926Z,18.20
2023-01-09T09:46:50.047Z,17.40
2023-01-09T09:49:49.411Z,14.97
2023-01-09T09:52:59.521Z,13.43
2023-01-09T09:55:40.064Z,16.63
2023-01-09T09:58:12.396Z,16.10
2023-01-09T10:00:39.973Z,17.20
2023-01-09T10:03:32.995Z,20.80
2023-01-09T10:06:08.226Z,19.00
2023-01-09T10:08:53.831Z,20.03
2023-01-09T10:11:49.712Z,19.47
2023-01-09T10:14:24.238Z,18.03
2023-01-09T10:17:17.445Z,19.40
2023-01-09T10:20:02.291Z,21.63
2023-01-09T10:23:06.386Z,19.37
2023-01-09T10:25:51.469Z,18.93
2023-01-09T10:28:58.959Z,22.20
2023-01-09T10:32:21.521Z,20.60
2023-01-09T10:35:42.765Z,21.70
2023-01-09T10:38:32.252Z,21.10
2023-01-09T10:41:28.989Z,22.90
2023-01-09T10:44:05.788Z,18.73
2023-01-09T10:46:45.566Z,22.07
2023-01-09T10:49:18.002Z,16.80
2023-01-09T10:51:51.187Z,16.73
2023-01-09T10:54:23.600Z,17.50
2023-01-09T10:57:13.523Z,16.77
2023-01-09T10:59:42.268Z,17.47
2023-01-09T11:02:36.183Z,16.30
2023-01-09T11:05:03.714Z,16.57
2023-01-09T11:07:37.366Z,14.47
2023-01-09T11:10:11.962Z,16.40
2023-01-09T11:12:40.496Z,11.80
2023-01-09T11:15:19.565Z,13.13
2023-01-09T11:17:50.983Z,13.40
2023-01-09T11:20:30.078Z,13.53
2023-01-09T11:22:59.010Z,10.97
2023-01-09T11:25:29.244Z,10.07
2023-01-09T11:28:02.781Z,9.27
2023-01-09T11:30:34.134Z,8.80
2023-01-09T11:33:13.730Z,10.97
2023-01-09T11:35:56.275Z,8.20
2023-01-09T11:38:23.750Z,5.80
2023-01-09T11:40:59.993Z,5.70
2023-01-09T11:43:33.173Z,6.07
2023-01-09T11:46:05.111Z,8.07
2023-01-09T11:48:57.154Z,6.30
2023-01-09T11:51:29.093Z,6.87
2023-01-09T11:54:38.173Z,5.50
2023-01-09T11:57:05.923Z,8.13
2023-01-09T11:59:33.602Z,5.43
2023-01-09T12:02:55.508Z,5.10
2023-01-09T12:05:36.471Z,5.00
2023-01-09T12:08:28.728Z,5.17
2023-01-09T12:11:20.644Z,5.30
2023-01-09T12:14:06.958Z,5.53
2023-01-09T12:17:25.493Z,6.23
2023-01-09T12:20:33.867Z,4.40
2023-01-09T12:23:32.181Z,4.77
2023-01-09T12:26:26.835Z,5.30
2023-01-09T12:29:35.930Z,7.40
2023-01-09T12:32:36.834Z,5.97
2023-01-09T12:35:42.630Z,4.63
2023-01-09T12:38:59.397Z,6.33
2023-01-09T12:42:11.302Z,5.93
2023-01-09T12:45:00.444Z,4.67
2023-01-09T12:48:02.619Z,3.47
2023-01-09T12:50:43.854Z,4.80
2023-01-09T12:53:39.258Z,6.63
2023-01-09T12:56:17.846Z,7.33
2023-01-09T12:58:57.229Z,6.57
2023-01-09T13:01:42.745Z,6.93
2023-01-09T13:04:25.664Z,5.80
2023-01-09T13:07:06.026Z,7.47
2023-01-09T13:10:00.808Z,8.00
2023-01-09T13:12:32.257Z,7.63
2023-01-09T13:15:33.266Z,11.77
2023-01-09T13:18:13.142Z,7.33
2023-01-09T13:20:56.772Z,4.70
2023-01-09T13:23:33.260Z,5.87
2023-01-09T13:26:06.658Z,43.03
2023-01-09T13:28:43.750Z,4.03
2023-01-09T13:31:17.126Z,6.00
2023-01-09T13:33:51.630Z,8.00
2023-01-09T13:36:30.444Z,6.73
2023-01-09T13:39:00.319Z,6.80
2023-01-09T13:41:48.254Z,8.17
2023-01-09T13:44:18.889Z,7.10
2023-01-09T13:46:49.835Z,6.37
2023-01-09T13:49:36.807Z,7.47
2023-01-09T13:52:26.050Z,9.47
2023-01-09T13:54:54.907Z,9.27
2023-01-09T13:57:35.135Z,10.60
2023-01-09T14:00:25.829Z,7.50
2023-01-09T14:02:58.406Z,8.90
2023-01-09T14:05:25.962Z,9.27
2023-01-09T14:08:32.255Z,7.80
2023-01-09T14:11:05.047Z,8.70
2023-01-09T14:13:44.520Z,12.27
2023-01-09T14:16:27.216Z,6.23
2023-01-09T14:19:05.319Z,11.03
2023-01-09T14:21:54.628Z,9.33
2023-01-09T14:24:31.757Z,7.03
2023-01-09T14:27:01.922Z,7.33
2023-01-09T14:29:29.550Z,9.00
2023-01-09T14:32:26.688Z,10.37
2023-01-09T14:35:03.619Z,8.10
2023-01-09T14:37:34.889Z,9.23
2023-01-09T14:40:07.726Z,19.23
2023-01-09T14:42:40.758Z,11.93
2023-01-09T14:45:19.396Z,13.10
2023-01-09T14:48:00.431Z,10.10
2023-01-09T14:50:37.867Z,12.70
2023-01-09T14:53:16.352Z,14.87
2023-01-09T14:55:58.018Z,8.90
2023-01-09T14:58:32.881Z,12.83
2023-01-09T15:01:23.010Z,14.27
2023-01-09T15:03:59.129Z,11.43
2023-01-09T15:06:37.223Z,13.67
2023-01-09T15:09:23.065Z,12.97
2023-01-09T15:11:52.855Z,11.47
2023-01-09T15:14:40.107Z,14.97
2023-01-09T15:17:19.982Z,18.07
2023-01-09T15:19:48.724Z,17.53
2023-01-09T15:22:35.553Z,13.33
2023-01-09T15:25:40.446Z,12.87
2023-01-09T15:28:35.140Z,13.20
2023-01-09T15:31:15.441Z,13.60
2023-01-09T15:33:46.050Z,12.70
2023-01-09T15:36:30.942Z,11.43
2023-01-09T15:38:59.734Z,13.80
2023-01-09T15:41:49.132Z,15.77
2023-01-09T15:44:26.392Z,11.83
2023-01-09T15:46:58.888Z,12.00
2023-01-09T15:49:26.984Z,10.30
2023-01-09T15:51:55.668Z,8.70
2023-01-09T15:54:32.687Z,7.63
2023-01-09T15:57:25.374Z,10.27
2023-01-09T15:59:58.477Z,8.67
2023-01-09T16:02:45.381Z,7.30
2023-01-09T16:05:17.472Z,10.70
2023-01-09T16:07:50.675Z,12.33
2023-01-09T16:10:25.691Z,8.43
2023-01-09T16:12:54.677Z,11.13
2023-01-09T16:15:22.601Z,6.73
2023-01-09T16:18:05.917Z,13.03
2023-01-09T16:20:38.694Z,9.17
2023-01-09T16:23:35.930Z,10.80
2023-01-09T16:26:14.893Z,9.73
2023-01-09T16:28:42.957Z,7.47
2023-01-09T16:31:34.825Z,21.10
2023-01-09T16:34:07.470Z,8.37
2023-01-09T16:36:36.572Z,11.63
2023-01-09T16:39:04.951Z,10.90
2023-01-09T16:41:50.793Z,7.87
2023-01-09T16:44:19.515Z,9.37
2023-01-09T16:46:46.915Z,9.73
2023-01-09T16:49:24.849Z,9.00
2023-01-09T16:51:52.892Z,10.43
2023-01-09T16:54:20.610Z,9.47
2023-01-09T16:56:54.696Z,7.80
2023-01-09T16:59:24.765Z,8.63
2023-01-09T17:01:54.152Z,9.87
2023-01-09T17:04:23.832Z,8.63
2023-01-09T17:06:52.076Z,10.97
2023-01-09T17:09:23.119Z,8.93
2023-01-09T17:11:51.401Z,10.50
2023-01-09T17:14:18.781Z,8.47
2023-01-09T17:16:46.767Z,8.80
2023-01-09T17:19:19.139Z,8.20
2023-01-09T17:21:47.064Z,11.03
2023-01-09T17:24:43.951Z,7.20
2023-01-09T17:27:29.943Z,11.93
2023-01-09T17:29:57.544Z,13.77
2023-01-09T17:32:24.867Z,14.33
2023-01-09T17:34:52.215Z,13.13
2023-01-09T17:37:20.435Z,10.27
2023-01-09T17:39:47.939Z,8.40
2023-01-09T17:42:15.306Z,14.13
2023-01-09T17:44:42.763Z,13.27
2023-01-09T17:47:15.508Z,10.07
2023-01-09T17:49:43.246Z,9.90
2023-01-09T17:52:10.646Z,12.03
2023-01-09T17:54:38.089Z,13.30
2023-01-09T17:57:06.559Z,12.03
2023-01-09T17:59:35.236Z,14.20
2023-01-09T18:02:02.620Z,11.90
2023-01-09T18:04:29.850Z,11.63
2023-01-09T18:06:57.187Z,13.03
2023-01-09T18:09:24.552Z,11.37
2023-01-09T18:11:51.850Z,9.83
2023-01-09T18:14:19.072Z,15.83
2023-01-09T18:16:46.514Z,12.97
2023-01-09T18:19:13.834Z,15.07
2023-01-09T18:21:41.175Z,11.63
2023-01-09T18:24:09.377Z,12.73
2023-01-09T18:26:36.903Z,12.20
2023-01-09T18:29:04.313Z,11.13
2023-01-09T18:31:33.484Z,12.80
2023-01-09T18:34:19.345Z,11.87
2023-01-09T18:36:47.301Z,9.67
2023-01-09T18:39:15.838Z,12.90
2023-01-09T18:41:43.229Z,11.97
2023-01-09T18:44:10.581Z,16.07
2023-01-09T18:46:40.731Z,15.50
2023-01-09T18:49:09.813Z,13.20
2023-01-09T18:51:37.179Z,11.43
2023-01-09T18:54:08.258Z,11.87
2023-01-09T18:56:35.952Z,11.47
2023-01-09T18:59:05.083Z,14.93
2023-01-09T19:01:33.166Z,12.80
2023-01-09T19:04:01.300Z,12.03
2023-01-09T19:06:30.090Z,16.20
2023-01-09T19:09:01.166Z,17.27
2023-01-09T19:11:28.431Z,17.43
2023-01-09T19:13:56.150Z,14.60
2023-01-09T19:16:23.798Z,15.53
2023-01-09T19:18:51.072Z,15.53
2023-01-09T19:21:22.585Z,13.20
2023-01-09T19:23:57.046Z,11.57
2023-01-09T19:26:37.139Z,14.40
2023-01-09T19:29:12.447Z,14.10
2023-01-09T19:31:39.808Z,17.50
2023-01-09T19:34:07.886Z,15.97
2023-01-09T19:36:35.739Z,16.00
2023-01-09T19:39:32.806Z,15.53
2023-01-09T19:42:00.126Z,16.70
2023-01-09T19:44:27.623Z,18.60
2023-01-09T19:46:55.228Z,15.73
2023-01-09T19:49:22.526Z,16.10
2023-01-09T19:51:56.000Z,14.37
2023-01-09T19:54:23.746Z,12.37
2023-01-09T19:56:51.664Z,13.67
2023-01-09T19:59:19.280Z,13.63
2023-01-09T20:01:50.535Z,17.83
2023-01-09T20:04:18.691Z,16.67
2023-01-09T20:06:49.379Z,15.83
2023-01-09T20:09:19.411Z,13.67
2023-01-09T20:11:46.688Z,17.27
2023-01-09T20:14:16.227Z,17.47
2023-01-09T20:16:52.486Z,16.73
2023-01-09T20:19:20.444Z,15.87
2023-01-09T20:21:51.183Z,19.20
2023-01-09T20:24:18.626Z,16.03
2023-01-09T20:26:46.713Z,17.33
2023-01-09T20:29:14.233Z,17.07
2023-01-09T20:31:41.601Z,18.67
2023-01-09T20:34:12.802Z,17.50
2023-01-09T20:36:40.785Z,14.77
2023-01-09T20:39:11.588Z,16.27
2023-01-09T20:41:39.403Z,16.07
2023-01-09T20:44:12.157Z,16.83
2023-01-09T20:46:42.749Z,16.60
2023-01-09T20:49:13.401Z,15.17
2023-01-09T20:51:44.673Z,13.73
2023-01-09T20:54:13.504Z,13.87
2023-01-09T20:56:41.037Z,11.23
2023-01-09T20:59:22.919Z,11.07
2023-01-09T21:01:51.131Z,11.37
2023-01-09T21:04:18.728Z,12.77
2023-01-09T21:06:48.238Z,12.27
2023-01-09T21:09:17.094Z,13.70
2023-01-09T21:11:44.427Z,13.17
2023-01-09T21:14:11.881Z,14.60
2023-01-09T21:16:39.419Z,12.10
2023-01-09T21:19:06.877Z,12.67
2023-01-09T21:21:34.288Z,11.87
2023-01-09T21:24:01.684Z,11.20
2023-01-09T21:26:30.571Z,15.10
2023-01-09T21:29:00.886Z,13.30
2023-01-09T21:31:35.279Z,12.73
2023-01-09T21:34:06.783Z,15.07
2023-01-09T21:36:35.536Z,13.93
2023-01-09T21:39:07.702Z,12.43
2023-01-09T21:41:54.665Z,13.90
2023-01-09T21:44:40.268Z,13.47
2023-01-09T21:47:07.742Z,14.53
2023-01-09T21:49:36.198Z,12.63
2023-01-09T21:52:07.180Z,15.87
2023-01-09T21:54:35.010Z,19.73
2023-01-09T21:57:02.878Z,19.00
2023-01-09T21:59:30.348Z,20.00
2023-01-09T22:01:57.973Z,20.20
2023-01-09T22:04:28.601Z,19.13
2023-01-09T22:06:56.587Z,22.10
2023-01-09T22:09:23.989Z,22.97
2023-01-09T22:11:51.303Z,23.60
2023-01-09T22:14:19.473Z,22.60
2023-01-09T22:16:47.322Z,19.70
2023-01-09T22:19:18.199Z,30.03
2023-01-09T22:21:46.473Z,23.53
2023-01-09T22:24:16.911Z,23.80
2023-01-09T22:26:44.695Z,20.87
2023-01-09T22:29:12.161Z,20.57
2023-01-09T22:31:40.678Z,21.20
2023-01-09T22:34:14.466Z,23.77
2023-01-09T22:36:42.796Z,19.47
2023-01-09T22:39:16.760Z,18.63
2023-01-09T22:41:44.572Z,18.67
2023-01-09T22:44:12.866Z,19.30
2023-01-09T22:46:40.303Z,18.37
2023-01-09T22:49:08.064Z,18.63
2023-01-09T22:51:35.495Z,21.83
2023-01-09T22:54:02.947Z,20.80
2023-01-09T22:56:32.288Z,21.87
2023-01-09T22:59:01.223Z,19.50
2023-01-09T23:01:28.742Z,20.40
2023-01-09T23:03:56.130Z,22.27
2023-01-09T23:06:25.393Z,23.50
2023-01-09T23:08:53.486Z,22.80
2023-01-09T23:11:44.102Z,25.43
2023-01-09T23:14:12.453Z,21.40
2023-01-09T23:16:40.250Z,27.63
2023-01-09T23:19:14.360Z,28.20
2023-01-09T23:21:43.353Z,26.03
2023-01-09T23:24:11.770Z,30.20
2023-01-09T23:26:39.326Z,35.23
2023-01-09T23:29:07.610Z,64.13
2023-01-09T23:31:35.074Z,35.03
2023-01-09T23:34:03.925Z,38.70
2023-01-09T23:36:31.221Z,37.13
2023-01-09T23:38:59.606Z,40.43
2023-01-09T23:41:45.088Z,44.23
2023-01-09T23:44:12.199Z,43.17
2023-01-09T23:46:39.548Z,52.43
2023-01-09T23:49:06.645Z,111.43
2023-01-09T23:51:33.869Z,50.23
2023-01-09T23:54:00.968Z,55.40
2023-01-09T23:56:30.578Z,55.30
2023-01-09T23:58:58.104Z,60.30
